Time;durP1;ratioP1;P1;durP2;ratioP2;P2;SDS_P1;SDS_P2;PMS_P1;PMS_P2;Temp;Humidity;BMP_temperature;BMP_pressure;BME280_temperature;BME280_humidity;BME280_pressure;Samples;Min_cycle;Max_cycle;Signal;HPM_P1;HPM_P2
2022/11/24 00:00:13;;;;;;;14.27;3.70;;;;;;;5.19;100.00;99690.69;685011;28;992;-63
2022/11/24 00:00:33;;;;;;;12.45;3.67;;;;;;;5.21;100.00;99693.28;685279;28;1236;-63
2022/11/24 00:00:53;;;;;;;13.95;3.90;;;;;;;5.20;100.00;99689.78;684720;28;4300;-63
2022/11/24 00:01:16;;;;;;;15.47;4.00;;;;;;;5.16;100.00;99690.66;685170;28;1620;-64
2022/11/24 00:01:37;;;;;;;16.58;4.03;;;;;;;5.13;100.00;99688.06;684627;28;945;-63
2022/11/24 00:01:57;;;;;;;17.67;4.18;;;;;;;5.13;100.00;99689.81;685212;28;1016;-63
2022/11/24 00:02:17;;;;;;;12.87;3.83;;;;;;;5.13;100.00;99687.22;684856;28;1167;-63
2022/11/24 00:02:38;;;;;;;10.03;3.70;;;;;;;5.15;100.00;99695.84;685033;28;932;-63
2022/11/24 00:02:59;;;;;;;13.07;3.75;;;;;;;5.16;100.00;99697.56;682209;29;825;-63
2022/11/24 00:03:19;;;;;;;13.52;4.00;;;;;;;5.15;100.00;99688.94;682299;28;921;-63
2022/11/24 00:03:40;;;;;;;15.23;3.83;;;;;;;5.15;100.00;99688.06;682518;28;1296;-63
2022/11/24 00:04:03;;;;;;;13.18;3.58;;;;;;;5.17;100.00;99689.78;684713;28;4457;-63
2022/11/24 00:04:24;;;;;;;12.90;3.60;;;;;;;5.24;100.00;99685.50;683764;28;992;-63
2022/11/24 00:04:44;;;;;;;12.47;3.77;;;;;;;5.24;100.00;99688.94;681410;28;2387;-63
2022/11/24 00:05:05;;;;;;;15.50;3.30;;;;;;;5.23;100.00;99684.66;687311;28;1270;-63
2022/11/24 00:05:26;;;;;;;14.60;3.63;;;;;;;5.23;100.00;99691.53;685752;28;1120;-63
2022/11/24 00:05:46;;;;;;;12.10;3.67;;;;;;;5.19;100.00;99689.78;686796;28;1206;-63
2022/11/24 00:06:09;;;;;;;11.07;3.47;;;;;;;5.14;100.00;99682.03;686716;28;1172;-64
2022/11/24 00:06:32;;;;;;;12.75;3.42;;;;;;;5.14;100.00;99694.09;684595;28;1063;-63
2022/11/24 00:06:52;;;;;;;11.65;3.53;;;;;;;5.15;100.00;99688.94;684175;28;4381;-63
2022/11/24 00:07:12;;;;;;;10.93;3.50;;;;;;;5.17;100.00;99683.75;684997;28;890;-63
2022/11/24 00:07:33;;;;;;;12.03;3.73;;;;;;;5.15;100.00;99693.25;685352;28;909;-64
2022/11/24 00:07:53;;;;;;;12.05;3.75;;;;;;;5.11;100.00;99685.47;685284;28;1021;-63
2022/11/24 00:08:14;;;;;;;12.03;3.70;;;;;;;5.10;100.00;99688.91;685722;28;1376;-63
2022/11/24 00:08:35;;;;;;;10.25;3.60;;;;;;;5.07;100.00;99694.09;685687;28;798;-63
2022/11/24 00:08:57;;;;;;;11.52;3.92;;;;;;;5.06;100.00;99687.19;680859;28;1179;-63
2022/11/24 00:09:18;;;;;;;10.45;3.67;;;;;;;5.10;100.00;99690.66;684276;28;1085;-64
2022/11/24 00:09:38;;;;;;;11.20;3.70;;;;;;;5.13;100.00;99687.22;682059;28;1103;-63
2022/11/24 00:09:59;;;;;;;10.93;4.00;;;;;;;5.17;100.00;99691.53;681045;28;4391;-63
2022/11/24 00:10:19;;;;;;;11.13;3.97;;;;;;;5.17;100.00;99694.13;686046;28;1133;-64
2022/11/24 00:10:39;;;;;;;11.38;3.67;;;;;;;5.27;100.00;99694.16;682786;28;897;-63
2022/11/24 00:11:21;;;;;;;14.40;4.00;;;;;;;5.32;100.00;99696.72;684661;28;862;-63
2022/11/24 00:11:41;;;;;;;12.57;3.78;;;;;;;5.29;100.00;99686.38;685099;28;1019;-63
2022/11/24 00:12:01;;;;;;;13.40;3.90;;;;;;;5.26;100.00;99695.00;685205;28;881;-63
2022/11/24 00:12:22;;;;;;;14.97;3.67;;;;;;;5.25;100.00;99695.00;685016;28;1086;-63
2022/11/24 00:12:42;;;;;;;14.37;3.70;;;;;;;5.19;100.00;99697.56;685125;28;901;-63
2022/11/24 00:13:02;;;;;;;15.80;3.83;;;;;;;5.17;100.00;99692.38;684224;28;4513;-64
2022/11/24 00:13:23;;;;;;;12.47;3.73;;;;;;;5.17;100.00;99691.53;684854;28;1196;-63
2022/11/24 00:13:43;;;;;;;10.10;3.25;;;;;;;5.16;100.00;99692.38;684669;28;1139;-63
2022/11/24 00:14:05;;;;;;;12.17;3.50;;;;;;;5.16;100.00;99690.66;685129;28;1222;-63
2022/11/24 00:14:25;;;;;;;13.13;3.70;;;;;;;5.18;100.00;99699.31;687661;28;1204;-63
2022/11/24 00:14:45;;;;;;;12.53;3.43;;;;;;;5.19;100.00;99690.69;686845;28;1294;-64
2022/11/24 00:15:06;;;;;;;9.57;3.50;;;;;;;5.21;100.00;99694.13;684915;28;876;-64
2022/11/24 00:15:26;;;;;;;10.83;3.80;;;;;;;5.19;100.00;99689.78;684507;28;1380;-63
2022/11/24 00:15:47;;;;;;;13.30;3.92;;;;;;;5.19;100.00;99694.97;684520;28;4645;-63
2022/11/24 00:16:42;;;;;;;12.17;4.20;;;;;;;5.28;100.00;99695.84;684909;28;1038;-63
2022/11/24 00:17:03;;;;;;;11.80;3.90;;;;;;;5.28;100.00;99692.41;678178;29;1623;-63
2022/11/24 00:17:23;;;;;;;10.07;3.50;;;;;;;5.26;100.00;99699.31;678996;29;1313;-63
2022/11/24 00:17:43;;;;;;;10.43;3.53;;;;;;;5.22;100.00;99695.84;676908;29;929;-63
2022/11/24 00:18:04;;;;;;;11.43;3.50;;;;;;;5.20;100.00;99692.38;677203;29;1309;-63
2022/11/24 00:18:24;;;;;;;10.75;3.65;;;;;;;5.15;100.00;99695.84;676362;29;1163;-63
2022/11/24 00:18:46;;;;;;;10.07;3.47;;;;;;;5.11;100.00;99692.38;676232;29;4414;-63
2022/11/24 00:19:08;;;;;;;10.13;3.88;;;;;;;5.12;100.00;99694.09;677219;29;1077;-63
2022/11/24 00:19:28;;;;;;;8.95;3.50;;;;;;;5.16;100.00;99694.97;677478;29;885;-63
2022/11/24 00:19:49;;;;;;;11.17;3.50;;;;;;;5.16;100.00;99694.97;681818;28;1282;-63
2022/11/24 00:20:09;;;;;;;12.90;3.60;;;;;;;5.13;100.00;99695.84;684342;28;3850;-63
2022/11/24 00:20:30;;;;;;;11.50;3.40;;;;;;;5.10;100.00;99696.69;685078;28;1304;-63
2022/11/24 00:20:53;;;;;;;12.07;3.63;;;;;;;5.10;100.00;99699.28;684948;28;876;-63
2022/11/24 00:21:14;;;;;;;12.40;3.80;;;;;;;5.17;100.00;99696.72;684629;28;1068;-64
2022/11/24 00:21:36;;;;;;;10.07;3.63;;;;;;;5.18;100.00;99693.25;684692;28;1266;-63
2022/11/24 00:21:56;;;;;;;10.70;3.45;;;;;;;5.19;100.00;99694.97;684287;28;4294;-64
2022/11/24 00:22:17;;;;;;;10.90;3.40;;;;;;;5.19;100.00;99700.16;684840;28;1166;-62
2022/11/24 00:22:37;;;;;;;11.40;3.37;;;;;;;5.22;100.00;99700.16;685324;28;1063;-63
2022/11/24 00:22:58;;;;;;;10.63;3.47;;;;;;;5.23;100.00;99702.78;685106;28;1079;-63
2022/11/24 00:23:18;;;;;;;12.30;4.00;;;;;;;5.24;100.00;99699.31;684856;28;1244;-63
2022/11/24 00:23:38;;;;;;;14.20;3.70;;;;;;;5.28;100.00;99697.59;684671;28;1512;-63
2022/11/24 00:23:59;;;;;;;11.80;3.80;;;;;;;5.29;100.00;99697.59;685176;28;889;-63
2022/11/24 00:24:20;;;;;;;9.73;3.80;;;;;;;5.30;100.00;99688.06;684721;28;1129;-62
2022/11/24 00:24:40;;;;;;;12.18;3.53;;;;;;;5.31;100.00;99695.00;685216;28;893;-63
2022/11/24 00:25:00;;;;;;;10.27;3.23;;;;;;;5.29;100.00;99701.91;684651;28;4444;-63
2022/11/24 00:25:21;;;;;;;11.03;3.30;;;;;;;5.35;100.00;99698.47;684836;28;1502;-63
2022/11/24 00:25:43;;;;;;;12.32;3.60;;;;;;;5.36;100.00;99698.47;685048;28;929;-63
2022/11/24 00:26:03;;;;;;;12.88;3.75;;;;;;;5.36;100.00;99695.88;685358;28;957;-63
2022/11/24 00:26:27;;;;;;;13.32;3.72;;;;;;;5.34;100.00;99692.41;684991;28;1140;-63
2022/11/24 00:26:47;;;;;;;10.63;3.72;;;;;;;5.34;100.00;99700.19;683848;28;1013;-63
2022/11/24 00:27:08;;;;;;;12.25;3.50;;;;;;;5.35;100.00;99701.06;684822;28;886;-64
2022/11/24 00:27:28;;;;;;;10.37;3.60;;;;;;;5.31;100.00;99696.75;685241;28;897;-63
2022/11/24 00:27:48;;;;;;;10.60;3.73;;;;;;;5.32;100.00;99694.16;684432;28;4722;-62
2022/11/24 00:28:09;;;;;;;12.27;3.80;;;;;;;5.44;100.00;99704.53;684931;28;1083;-63
2022/11/24 00:28:29;;;;;;;12.80;3.70;;;;;;;5.44;100.00;99703.63;684905;28;1032;-63
2022/11/24 00:28:52;;;;;;;10.77;3.50;;;;;;;5.43;100.00;99700.19;685306;28;1409;-63
2022/11/24 00:29:13;;;;;;;10.60;3.50;;;;;;;5.40;100.00;99692.44;686237;28;1050;-63
2022/11/24 00:29:33;;;;;;;12.23;3.70;;;;;;;5.34;100.00;99692.41;686101;28;857;-63
2022/11/24 00:29:53;;;;;;;10.30;3.50;;;;;;;5.32;100.00;99696.72;685945;28;1142;-64
2022/11/24 00:30:14;;;;;;;10.40;3.57;;;;;;;5.33;100.00;99701.06;685985;28;1041;-63
2022/11/24 00:30:34;;;;;;;10.57;3.50;;;;;;;5.31;100.00;99695.00;683593;28;909;-63
2022/11/24 00:30:54;;;;;;;14.13;3.40;;;;;;;5.29;100.00;99697.59;683605;28;4450;-63
2022/11/24 00:31:18;;;;;;;12.38;3.30;;;;;;;5.32;100.00;99699.31;685185;28;1279;-63
2022/11/24 00:31:41;;;;;;;11.10;3.88;;;;;;;5.36;100.00;99698.47;685411;28;1011;-63
2022/11/24 00:32:04;;;;;;;14.18;3.83;;;;;;;5.34;100.00;99696.72;683912;28;975;-63
2022/11/24 00:32:29;;;;;;;10.45;3.33;;;;;;;5.34;100.00;99695.00;684696;28;871;-63
2022/11/24 00:32:51;;;;;;;11.70;3.80;;;;;;;5.33;100.00;99698.47;684833;28;959;-63
2022/11/24 00:33:11;;;;;;;12.73;3.45;;;;;;;5.29;100.00;99699.31;685092;28;1049;-63
2022/11/24 00:33:32;;;;;;;10.63;3.60;;;;;;;5.29;100.00;99691.56;684887;28;1149;-63
2022/11/24 00:33:54;;;;;;;11.30;3.80;;;;;;;5.28;100.00;99695.00;684063;28;4512;-63
2022/11/24 00:34:15;;;;;;;12.23;3.78;;;;;;;5.24;100.00;99696.72;684717;28;953;-63
2022/11/24 00:34:35;;;;;;;13.07;3.60;;;;;;;5.21;100.00;99694.13;685227;28;924;-64
2022/11/24 00:34:55;;;;;;;15.05;3.50;;;;;;;5.19;100.00;99695.88;685282;28;802;-63
2022/11/24 00:35:16;;;;;;;10.83;3.60;;;;;;;5.19;100.00;99700.16;684789;28;1530;-63
2022/11/24 00:35:36;;;;;;;11.73;3.78;;;;;;;5.19;100.00;99700.16;685149;28;826;-64
2022/11/24 00:35:58;;;;;;;10.77;3.43;;;;;;;5.18;100.00;99696.72;685046;28;912;-63
2022/11/24 00:36:20;;;;;;;10.43;3.60;;;;;;;5.16;100.00;99697.56;684580;28;1106;-63
2022/11/24 00:36:41;;;;;;;13.18;4.07;;;;;;;5.13;100.00;99698.44;684278;28;1270;-64
2022/11/24 00:37:01;;;;;;;9.50;3.33;;;;;;;5.13;100.00;99695.84;682999;28;4257;-63
2022/11/24 00:37:21;;;;;;;12.47;3.53;;;;;;;5.14;100.00;99691.50;685011;28;1434;-63
2022/11/24 00:37:42;;;;;;;11.60;3.87;;;;;;;5.11;100.00;99693.25;685005;28;917;-63
2022/11/24 00:38:02;;;;;;;11.27;3.77;;;;;;;5.13;100.00;99700.16;684908;28;1074;-64
2022/11/24 00:38:23;;;;;;;11.13;3.80;;;;;;;5.10;100.00;99694.09;684162;28;979;-63
2022/11/24 00:38:44;;;;;;;12.40;3.90;;;;;;;5.08;100.00;99694.94;684736;28;4971;-63
2022/11/24 00:39:09;;;;;;;14.32;3.72;;;;;;;5.07;100.00;99701.88;684972;28;1369;-63
2022/11/24 00:39:30;;;;;;;13.93;3.80;;;;;;;5.08;100.00;99693.25;684811;28;1007;-63
2022/11/24 00:39:50;;;;;;;15.03;3.90;;;;;;;5.07;100.00;99696.69;684604;28;4419;-63
2022/11/24 00:40:11;;;;;;;13.10;3.70;;;;;;;5.07;100.00;99694.09;684356;28;1008;-63
2022/11/24 00:40:31;;;;;;;13.48;3.90;;;;;;;5.06;100.00;99696.69;684941;28;1001;-63
2022/11/24 00:40:52;;;;;;;14.93;4.27;;;;;;;5.05;100.00;99698.44;685166;28;913;-63
2022/11/24 00:41:13;;;;;;;13.20;3.78;;;;;;;5.02;100.00;99698.41;684840;28;1016;-63
2022/11/24 00:41:33;;;;;;;14.27;3.70;;;;;;;5.03;100.00;99692.38;685417;28;991;-63
2022/11/24 00:41:54;;;;;;;12.37;3.63;;;;;;;5.06;100.00;99699.28;685376;28;1373;-64
2022/11/24 00:42:15;;;;;;;10.30;3.40;;;;;;;5.07;100.00;99696.69;684612;28;1331;-63
2022/11/24 00:42:35;;;;;;;10.80;3.35;;;;;;;5.09;100.00;99697.53;685019;28;803;-63
2022/11/24 00:42:55;;;;;;;10.47;3.30;;;;;;;5.13;100.00;99689.81;684838;28;4474;-63
2022/11/24 00:43:16;;;;;;;13.50;3.63;;;;;;;5.09;100.00;99700.13;685065;28;1078;-63
2022/11/24 00:43:37;;;;;;;15.07;4.03;;;;;;;5.08;100.00;99695.84;685400;28;979;-63
2022/11/24 00:43:58;;;;;;;14.27;3.67;;;;;;;5.09;100.00;99694.09;685110;28;1011;-63
2022/11/24 00:44:18;;;;;;;12.55;3.53;;;;;;;5.10;100.00;99690.66;684811;28;1247;-64
2022/11/24 00:44:39;;;;;;;12.47;3.93;;;;;;;5.09;100.00;99691.50;685000;28;809;-63
2022/11/24 00:44:59;;;;;;;13.27;3.90;;;;;;;5.09;100.00;99694.09;685060;28;752;-63
2022/11/24 00:45:19;;;;;;;13.10;3.75;;;;;;;5.09;100.00;99696.69;684928;28;957;-63
2022/11/24 00:45:41;;;;;;;9.53;3.33;;;;;;;5.08;100.00;99698.44;685142;28;1235;-64
2022/11/24 00:46:02;;;;;;;10.27;3.63;;;;;;;5.09;100.00;99699.28;684177;28;5309;-63
2022/11/24 00:46:23;;;;;;;11.97;3.63;;;;;;;5.08;100.00;99693.25;682275;28;1240;-63
2022/11/24 00:46:43;;;;;;;12.90;3.90;;;;;;;5.10;100.00;99695.84;681527;29;1023;-63
2022/11/24 00:47:03;;;;;;;12.63;3.50;;;;;;;5.12;100.00;99694.09;679548;29;1024;-64
2022/11/24 00:47:24;;;;;;;10.93;3.60;;;;;;;5.13;100.00;99697.56;679552;29;905;-64
2022/11/24 00:47:44;;;;;;;11.70;3.70;;;;;;;5.15;100.00;99695.84;677344;29;1130;-64
2022/11/24 00:48:07;;;;;;;12.53;3.60;;;;;;;5.18;100.00;99698.41;680064;29;782;-63
2022/11/24 00:48:27;;;;;;;12.80;3.55;;;;;;;5.20;100.00;99697.56;682223;29;988;-63
2022/11/24 00:48:48;;;;;;;15.20;4.07;;;;;;;5.23;100.00;99696.72;681894;28;4406;-63
2022/11/24 00:49:08;;;;;;;16.95;4.00;;;;;;;5.25;100.00;99692.41;684681;28;1569;-64
2022/11/24 00:49:29;;;;;;;16.90;3.90;;;;;;;5.29;100.00;99697.59;685049;28;900;-63
2022/11/24 00:49:49;;;;;;;14.57;3.60;;;;;;;5.33;100.00;99693.28;685377;28;845;-63
2022/11/24 00:50:09;;;;;;;13.63;3.70;;;;;;;5.33;100.00;99695.88;684698;28;1083;-63
2022/11/24 00:50:30;;;;;;;12.43;3.88;;;;;;;5.32;100.00;99696.72;685036;28;1479;-64
2022/11/24 00:51:02;;;;;;;13.03;4.07;;;;;;;5.34;100.00;99699.31;685740;28;1276;-63
2022/11/24 00:51:29;;;;;;;12.77;3.50;;;;;;;5.33;100.00;99703.66;685150;28;1220;-63
2022/11/24 00:51:49;;;;;;;12.10;3.55;;;;;;;5.34;100.00;99700.19;686073;28;5171;-63
2022/11/24 00:52:09;;;;;;;13.02;3.72;;;;;;;5.36;100.00;99697.59;686157;28;1729;-63
2022/11/24 00:52:29;;;;;;;14.83;3.63;;;;;;;5.35;100.00;99701.91;685889;28;957;-63
2022/11/24 00:52:50;;;;;;;9.18;3.35;;;;;;;5.41;100.00;99701.94;686170;28;845;-63
2022/11/24 00:53:10;;;;;;;15.00;4.40;;;;;;;5.47;100.00;99703.66;687352;28;987;-63
2022/11/24 00:53:31;;;;;;;17.53;4.77;;;;;;;5.44;100.00;99699.34;686409;28;912;-64
2022/11/24 00:53:52;;;;;;;14.25;3.60;;;;;;;5.45;100.00;99703.66;685957;28;1385;-65
2022/11/24 00:54:12;;;;;;;13.50;3.83;;;;;;;5.47;100.00;99695.88;684866;28;1300;-63
2022/11/24 00:54:33;;;;;;;11.03;3.63;;;;;;;5.45;100.00;99702.78;685457;28;936;-64
2022/11/24 00:54:53;;;;;;;11.25;3.20;;;;;;;5.43;100.00;99700.19;684395;28;4365;-63
2022/11/24 00:55:13;;;;;;;12.00;3.17;;;;;;;5.41;100.00;99707.13;684951;28;931;-63
2022/11/24 00:55:34;;;;;;;11.20;3.50;;;;;;;5.44;100.00;99707.13;685224;28;1331;-63
2022/11/24 00:55:55;;;;;;;12.50;3.80;;;;;;;5.45;100.00;99706.25;686074;28;1030;-63
2022/11/24 00:56:15;;;;;;;9.75;3.50;;;;;;;5.43;100.00;99704.53;685156;28;1124;-63
2022/11/24 00:56:36;;;;;;;7.88;2.88;;;;;;;5.42;100.00;99703.66;685242;28;956;-64
2022/11/24 00:56:56;;;;;;;8.57;3.20;;;;;;;5.43;100.00;99700.19;684877;28;818;-63
2022/11/24 00:57:17;;;;;;;9.67;3.00;;;;;;;5.40;100.00;99705.38;684996;28;1420;-64
2022/11/24 00:57:37;;;;;;;10.52;3.15;;;;;;;5.36;100.00;99708.84;685442;28;1199;-63
2022/11/24 00:57:57;;;;;;;10.63;3.37;;;;;;;5.35;100.00;99706.25;684217;28;4576;-64
2022/11/24 00:58:18;;;;;;;11.87;3.50;;;;;;;5.33;100.00;99697.59;684704;28;1055;-63
2022/11/24 00:58:39;;;;;;;10.85;3.10;;;;;;;5.31;100.00;99707.97;685003;28;1911;-64
2022/11/24 00:58:59;;;;;;;11.32;3.50;;;;;;;5.32;100.00;99701.91;684827;28;1307;-63
2022/11/24 00:59:19;;;;;;;10.37;3.40;;;;;;;5.32;100.00;99704.50;684899;28;1244;-63
2022/11/24 00:59:40;;;;;;;11.90;3.22;;;;;;;5.34;100.00;99704.50;685175;28;1342;-63
2022/11/24 01:00:00;;;;;;;11.70;3.30;;;;;;;5.32;100.00;99707.09;685310;28;928;-63
2022/11/24 01:00:20;;;;;;;12.60;3.80;;;;;;;5.28;100.00;99702.78;685071;28;1047;-64
2022/11/24 01:00:41;;;;;;;12.18;3.50;;;;;;;5.28;100.00;99710.56;686021;28;1553;-63
2022/11/24 01:01:12;;;;;;;8.45;3.17;;;;;;;5.30;100.00;99706.22;681158;28;4272;-63
2022/11/24 01:01:32;;;;;;;9.63;3.30;;;;;;;5.30;100.00;99703.63;681726;28;870;-63
2022/11/24 01:01:53;;;;;;;10.57;3.43;;;;;;;5.27;100.00;99703.63;683340;28;846;-63
2022/11/24 01:02:13;;;;;;;10.00;3.20;;;;;;;5.27;100.00;99703.63;682267;28;1170;-63
2022/11/24 01:02:33;;;;;;;9.40;3.28;;;;;;;5.29;100.00;99705.38;682450;28;862;-63
2022/11/24 01:02:54;;;;;;;9.90;3.30;;;;;;;5.29;100.00;99707.09;684156;28;1457;-64
2022/11/24 01:03:15;;;;;;;11.95;3.38;;;;;;;5.31;100.00;99714.88;685549;28;948;-63
2022/11/24 01:03:36;;;;;;;12.75;3.90;;;;;;;5.28;100.00;99705.38;684768;28;1205;-63
2022/11/24 01:04:00;;;;;;;11.23;3.97;;;;;;;5.25;100.00;99707.97;684433;28;4594;-62
2022/11/24 01:04:20;;;;;;;11.88;3.72;;;;;;;5.29;100.00;99709.69;684221;28;1097;-63
2022/11/24 01:04:41;;;;;;;10.15;3.20;;;;;;;5.38;100.00;99708.84;685393;28;833;-64
2022/11/24 01:05:02;;;;;;;9.83;2.93;;;;;;;5.36;100.00;99708.84;685233;28;924;-64
2022/11/24 01:05:22;;;;;;;10.88;3.38;;;;;;;5.34;100.00;99710.53;685995;28;1265;-63
2022/11/24 01:05:42;;;;;;;11.67;3.53;;;;;;;5.34;100.00;99710.53;686065;28;789;-64
2022/11/24 01:06:14;;;;;;;13.20;3.47;;;;;;;5.37;100.00;99709.69;686762;28;1315;-63
2022/11/24 01:06:34;;;;;;;12.73;3.80;;;;;;;5.37;100.00;99713.16;683668;28;1074;-63
2022/11/24 01:06:55;;;;;;;11.93;3.63;;;;;;;5.40;100.00;99714.88;686032;28;4348;-64
2022/11/24 01:07:15;;;;;;;12.47;3.57;;;;;;;5.39;100.00;99714.00;684929;28;957;-63
2022/11/24 01:07:36;;;;;;;10.18;3.42;;;;;;;5.39;100.00;99716.59;685204;28;920;-63
2022/11/24 01:07:56;;;;;;;11.53;3.20;;;;;;;5.35;100.00;99712.28;685158;28;1009;-63
2022/11/24 01:08:16;;;;;;;13.13;3.58;;;;;;;5.32;100.00;99716.59;684969;28;913;-63
2022/11/24 01:08:37;;;;;;;10.90;3.53;;;;;;;5.33;100.00;99714.03;685221;28;897;-63
2022/11/24 01:08:58;;;;;;;10.05;3.25;;;;;;;5.40;100.00;99717.47;685346;28;813;-64
2022/11/24 01:09:18;;;;;;;11.38;3.30;;;;;;;5.37;100.00;99715.75;684768;28;1007;-63
2022/11/24 01:09:42;;;;;;;12.70;3.67;;;;;;;5.38;100.00;99714.88;684622;28;1295;-63
2022/11/24 01:10:02;;;;;;;9.63;3.28;;;;;;;5.34;100.00;99714.88;684313;28;4401;-64
2022/11/24 01:10:23;;;;;;;10.77;3.03;;;;;;;5.33;100.00;99719.22;684958;28;1234;-64
2022/11/24 01:10:43;;;;;;;9.80;3.53;;;;;;;5.32;100.00;99722.66;684155;28;980;-63
2022/11/24 01:11:14;;;;;;;10.17;3.47;;;;;;;5.34;100.00;99725.25;684936;28;969;-63
2022/11/24 01:12:13;;;;;;;9.50;3.17;;;;;;;5.58;100.00;99720.09;684873;28;1007;-63
2022/11/24 01:12:34;;;;;;;11.20;3.57;;;;;;;5.67;100.00;99723.53;685181;28;865;-63
2022/11/24 01:12:54;;;;;;;10.50;4.23;;;;;;;5.62;100.00;99720.94;684336;28;4626;-63
2022/11/24 01:13:15;;;;;;;9.48;3.78;;;;;;;5.56;100.00;99718.34;684644;28;1510;-63
2022/11/24 01:13:35;;;;;;;8.13;3.10;;;;;;;5.53;100.00;99720.94;684568;28;860;-62
2022/11/24 01:13:57;;;;;;;10.07;3.38;;;;;;;5.52;100.00;99724.41;685160;28;877;-63
2022/11/24 01:14:19;;;;;;;9.95;3.10;;;;;;;5.49;100.00;99724.41;683636;28;1072;-64
2022/11/24 01:14:39;;;;;;;11.73;3.30;;;;;;;5.45;100.00;99723.53;685025;28;968;-63
2022/11/24 01:14:59;;;;;;;10.60;3.30;;;;;;;5.46;100.00;99725.25;685137;28;1382;-63
2022/11/24 01:15:20;;;;;;;11.10;3.43;;;;;;;5.45;100.00;99733.88;684945;28;1328;-64
2022/11/24 01:15:40;;;;;;;13.38;3.40;;;;;;;5.42;100.00;99728.72;684629;28;996;-63
2022/11/24 01:16:00;;;;;;;12.80;3.37;;;;;;;5.52;100.00;99729.59;681917;28;4342;-63
2022/11/24 01:16:27;;;;;;;13.48;3.45;;;;;;;5.67;100.00;99732.19;680993;28;3839;-63
2022/11/24 01:16:48;;;;;;;14.13;3.78;;;;;;;5.73;100.00;99723.53;680886;29;818;-63
2022/11/24 01:17:08;;;;;;;12.90;3.83;;;;;;;5.83;100.00;99724.41;681926;28;1014;-62
2022/11/24 01:17:28;;;;;;;11.73;3.40;;;;;;;5.86;100.00;99727.88;683232;28;917;-63
2022/11/24 01:17:49;;;;;;;14.18;3.60;;;;;;;5.92;100.00;99725.25;684625;28;865;-63
2022/11/24 01:18:09;;;;;;;12.27;3.40;;;;;;;5.95;100.00;99730.47;684561;28;1111;-63
2022/11/24 01:18:30;;;;;;;12.25;3.28;;;;;;;5.95;100.00;99724.38;685196;28;908;-63
2022/11/24 01:18:51;;;;;;;12.73;3.40;;;;;;;5.93;100.00;99718.34;684441;28;4481;-63
2022/11/24 01:19:11;;;;;;;10.75;3.13;;;;;;;5.89;100.00;99729.59;684657;28;1082;-63
2022/11/24 01:19:32;;;;;;;12.17;3.30;;;;;;;5.83;100.00;99720.09;685325;28;908;-63
2022/11/24 01:19:52;;;;;;;11.95;3.65;;;;;;;5.80;100.00;99730.44;684506;28;1310;-63
2022/11/24 01:20:12;;;;;;;10.93;3.37;;;;;;;5.75;100.00;99729.59;684866;28;972;-62
2022/11/24 01:20:35;;;;;;;8.97;2.93;;;;;;;5.71;100.00;99730.47;685186;28;880;-63
2022/11/24 01:20:55;;;;;;;9.23;2.88;;;;;;;5.63;100.00;99728.75;684295;28;960;-63
2022/11/24 01:21:16;;;;;;;11.97;3.60;;;;;;;5.61;100.00;99734.78;684931;28;976;-63
2022/11/24 01:21:36;;;;;;;13.98;3.53;;;;;;;5.57;100.00;99733.06;685143;28;1159;-63
2022/11/24 01:21:57;;;;;;;13.32;3.80;;;;;;;5.52;100.00;99729.59;684177;28;4328;-63
2022/11/24 01:22:17;;;;;;;13.30;3.67;;;;;;;5.47;100.00;99729.59;684088;28;1072;-63
2022/11/24 01:22:38;;;;;;;13.57;3.47;;;;;;;5.51;100.00;99726.13;685097;28;885;-63
2022/11/24 01:22:58;;;;;;;11.95;3.25;;;;;;;5.52;100.00;99729.59;684912;28;1037;-63
2022/11/24 01:23:19;;;;;;;10.90;3.35;;;;;;;5.51;100.00;99733.03;684250;28;1152;-63
2022/11/24 01:23:39;;;;;;;8.27;2.97;;;;;;;5.51;100.00;99731.31;685092;28;765;-64
2022/11/24 01:23:59;;;;;;;10.88;3.25;;;;;;;5.50;100.00;99732.19;684550;28;979;-63
2022/11/24 01:24:20;;;;;;;11.47;3.37;;;;;;;5.51;100.00;99738.22;684691;28;1246;-63
2022/11/24 01:24:40;;;;;;;11.03;3.50;;;;;;;5.48;100.00;99733.03;682274;28;853;-63
2022/11/24 01:25:00;;;;;;;14.50;4.20;;;;;;;5.41;100.00;99727.84;679072;29;5056;-63
2022/11/24 01:25:21;;;;;;;13.77;3.77;;;;;;;5.38;100.00;99733.00;676601;29;1073;-63
2022/11/24 01:25:41;;;;;;;13.05;3.65;;;;;;;5.36;100.00;99731.28;677335;29;766;-63
2022/11/24 01:26:10;;;;;;;11.47;3.47;;;;;;;5.35;100.00;99730.44;679410;29;850;-62
2022/11/24 01:26:31;;;;;;;13.35;3.33;;;;;;;5.35;100.00;99733.00;680047;28;1209;-63
2022/11/24 01:26:51;;;;;;;14.30;3.40;;;;;;;5.38;100.00;99738.19;683534;28;916;-63
2022/11/24 01:27:12;;;;;;;11.43;3.30;;;;;;;5.55;100.00;99735.66;684649;28;1092;-63
2022/11/24 01:27:32;;;;;;;15.85;3.33;;;;;;;5.55;100.00;99734.75;685100;28;818;-63
2022/11/24 01:27:52;;;;;;;16.80;4.20;;;;;;;5.56;100.00;99744.28;684299;28;4323;-64
2022/11/24 01:28:13;;;;;;;11.45;3.60;;;;;;;5.56;100.00;99733.91;684442;28;1087;-63
2022/11/24 01:28:34;;;;;;;11.53;3.30;;;;;;;5.52;100.00;99734.75;685067;28;929;-63
2022/11/24 01:28:56;;;;;;;14.10;3.95;;;;;;;5.56;100.00;99742.53;685002;28;911;-63
2022/11/24 01:29:16;;;;;;;14.38;3.78;;;;;;;5.66;100.00;99739.97;684823;28;1075;-63
2022/11/24 01:29:37;;;;;;;14.50;3.75;;;;;;;5.66;100.00;99737.38;684876;28;979;-64
2022/11/24 01:29:57;;;;;;;17.30;4.10;;;;;;;5.70;100.00;99737.34;684780;28;1054;-63
2022/11/24 01:30:17;;;;;;;14.88;3.67;;;;;;;5.69;100.00;99739.97;684307;28;1042;-62
2022/11/24 01:30:38;;;;;;;12.73;3.60;;;;;;;5.66;100.00;99737.38;685001;28;1575;-63
2022/11/24 01:31:00;;;;;;;13.07;3.57;;;;;;;5.66;100.00;99737.38;684758;28;4364;-63
2022/11/24 01:31:21;;;;;;;14.60;3.75;;;;;;;5.65;100.00;99739.09;684800;28;1455;-63
2022/11/24 01:31:41;;;;;;;11.82;3.72;;;;;;;5.66;100.00;99738.22;685014;28;829;-63
2022/11/24 01:32:02;;;;;;;11.40;3.30;;;;;;;5.65;100.00;99740.81;684481;28;963;-63
2022/11/24 01:32:22;;;;;;;13.55;3.45;;;;;;;5.65;100.00;99736.50;684539;28;1013;-64
2022/11/24 01:32:42;;;;;;;11.17;3.30;;;;;;;5.82;100.00;99735.66;685151;28;904;-63
2022/11/24 01:33:03;;;;;;;12.25;3.40;;;;;;;5.97;100.00;99743.44;684341;28;885;-63
2022/11/24 01:33:24;;;;;;;12.20;3.55;;;;;;;5.92;100.00;99745.16;684649;28;1255;-63
2022/11/24 01:33:45;;;;;;;10.88;3.38;;;;;;;5.88;100.00;99743.41;684550;28;4389;-63
2022/11/24 01:34:05;;;;;;;9.70;3.67;;;;;;;5.85;100.00;99751.22;685237;28;885;-63
2022/11/24 01:34:25;;;;;;;12.80;3.60;;;;;;;5.81;100.00;99739.97;684368;28;1301;-63
2022/11/24 01:34:46;;;;;;;12.18;3.35;;;;;;;5.79;100.00;99742.56;685129;28;871;-63
2022/11/24 01:35:07;;;;;;;12.37;3.40;;;;;;;5.76;100.00;99745.16;685133;28;1246;-63
2022/11/24 01:35:27;;;;;;;12.38;3.60;;;;;;;5.82;100.00;99735.66;685378;28;888;-63
2022/11/24 01:35:47;;;;;;;11.32;3.42;;;;;;;5.80;100.00;99743.41;684818;28;856;-63
2022/11/24 01:36:08;;;;;;;13.03;3.40;;;;;;;5.80;100.00;99741.69;684655;28;1080;-63
2022/11/24 01:36:28;;;;;;;13.53;3.70;;;;;;;5.88;100.00;99740.81;684263;28;836;-63
2022/11/24 01:36:48;;;;;;;12.07;3.50;;;;;;;5.87;100.00;99737.38;683994;28;4426;-63
2022/11/24 01:37:09;;;;;;;11.80;3.60;;;;;;;5.87;100.00;99741.69;684384;28;1099;-63
2022/11/24 01:37:29;;;;;;;11.05;3.15;;;;;;;5.85;100.00;99736.50;684998;28;974;-63
2022/11/24 01:37:49;;;;;;;11.30;3.50;;;;;;;5.89;100.00;99737.38;684999;28;774;-63
2022/11/24 01:38:10;;;;;;;12.80;3.73;;;;;;;5.88;100.00;99735.63;684665;28;1101;-63
2022/11/24 01:38:30;;;;;;;13.20;3.75;;;;;;;5.91;100.00;99740.81;684613;28;994;-63
2022/11/24 01:38:50;;;;;;;12.83;3.43;;;;;;;5.90;100.00;99739.97;684471;28;5173;-63
2022/11/24 01:39:12;;;;;;;13.32;3.20;;;;;;;5.96;100.00;99731.31;684741;28;986;-63
2022/11/24 01:39:32;;;;;;;13.73;3.50;;;;;;;5.94;100.00;99740.81;685158;28;854;-63
2022/11/24 01:39:52;;;;;;;9.90;3.15;;;;;;;6.02;100.00;99738.25;684258;28;4367;-63
2022/11/24 01:40:13;;;;;;;12.63;3.60;;;;;;;6.03;100.00;99738.25;684751;28;1104;-63
2022/11/24 01:40:33;;;;;;;12.93;3.77;;;;;;;5.99;100.00;99741.72;684855;28;951;-63
2022/11/24 01:41:11;;;;;;;10.77;3.47;;;;;;;5.99;100.00;99739.13;685142;28;876;-63
2022/11/24 01:41:32;;;;;;;12.02;3.30;;;;;;;5.96;100.00;99732.16;685263;28;839;-63
2022/11/24 01:41:53;;;;;;;11.23;3.42;;;;;;;5.92;100.00;99746.00;685182;28;1154;-63
2022/11/24 01:42:13;;;;;;;12.18;3.67;;;;;;;5.90;100.00;99742.56;685041;28;886;-63